Stations météo

réclame
Mon MeteoGroup
Berkhout, Pays-Bas (6249): Température de l'air & dewpoint: 05.12.2019 10:00:00 - 11.12.2019 10:00:00 (CET)Berkhout, Pays-Bas (6249): Température de l'air 5cm: 05.12.2019 10:00:00 - 11.12.2019 10:00:00 (CET)Berkhout, Pays-Bas (6249): Vitesse du vent & gusts: 05.12.2019 10:00:00 - 11.12.2019 10:00:00 (CET)Berkhout, Pays-Bas (6249): Direction du vent: 05.12.2019 10:00:00 - 11.12.2019 10:00:00 (CET)Berkhout, Pays-Bas (6249): visibility: 05.12.2019 10:00:00 - 11.12.2019 10:00:00 (CET)Berkhout, Pays-Bas (6249): Quantités de précipitations: 05.12.2019 10:00:00 - 11.12.2019 10:00:00 (CET)
Date & Time tt [°C] td [°C] tt 5cm [°C] ff [km/h] ff [knt] fx [km/h] fx [knt] dd vv [km] rr [mm]
11.12.2019 10:00:00 4,9 4,1 3,5 11 6 14 8 S 15 0,0
11.12.2019 09:00:00 5,1 4,4 4,3 11 6 11 6 S 16 0,0
11.12.2019 08:00:00 5,4 4,8 4,3 11 6 14 8 SSW 16 0,0
11.12.2019 07:00:00 6,9 6,3 6,3 11 6 14 8 SSW 15 0,0
11.12.2019 06:00:00 7,1 6,4 6,7 7 4 22 12 SSW 29 0,5
11.12.2019 05:00:00 7,7 6,5 7,0 18 10 29 16 W 5 1,9
11.12.2019 04:00:00 7,7 6,6 7,3 22 12 36 19 SSW 15 0,4
11.12.2019 03:00:00 7,5 6,5 6,9 25 14 47 25 SW 12 1,3
11.12.2019 02:00:00 7,4 5,9 6,9 32 18 50 27 SSW 7 0,3
11.12.2019 01:00:00 7,6 4,7 7,2 32 18 58 31 SSW 27 0,0
11.12.2019 00:00:00 7,4 4,2 6,9 36 19 58 31 SSW 28 0,0
10.12.2019 23:00:00 7,6 3,7 7,1 40 21 68 37 SSW 29 0,0
10.12.2019 22:00:00 7,1 3,4 6,5 40 21 61 33 SSW 26 0,0
10.12.2019 21:00:00 6,1 2,6 5,6 40 21 61 33 S 27 0,0
10.12.2019 20:00:00 6,0 2,0 5,5 40 21 61 33 S 33 0,0
10.12.2019 19:00:00 5,8 1,9 5,2 40 21 58 31 S 34 0,0
10.12.2019 18:00:00 5,8 2,4 5,1 36 19 54 29 S 24 0,1
10.12.2019 17:00:00 6,2 1,8 5,6 40 21 61 33 S 30 0,0
10.12.2019 16:00:00 5,9 1,9 5,2 36 19 54 29 S 31 0,0
10.12.2019 15:00:00 5,7 2,0 5,3 29 16 43 23 S 31 0,0
10.12.2019 14:00:00 5,8 1,9 5,6 29 16 47 25 S 36 0,0
10.12.2019 13:00:00 6,0 1,6 5,9 29 16 43 23 SSW 29 0,0
10.12.2019 12:00:00 5,9 1,8 5,6 29 16 40 21 SSW 31 0,0
10.12.2019 11:00:00 5,7 1,9 5,4 22 12 36 19 SSW 28 0,0
10.12.2019 10:00:00 4,7 2,1 3,6 18 10 29 16 SSW 19 0,0
10.12.2019 09:00:00 3,0 1,4 2,0 14 8 22 12 S 17 0,0
10.12.2019 08:00:00 2,5 1,0 1,5 11 6 18 10 S 16 0,0
10.12.2019 07:00:00 2,8 1,4 1,7 11 6 14 8 S 19 0,0
10.12.2019 06:00:00 4,5 2,8 3,9 7 4 25 14 S 24 0,2
10.12.2019 05:00:00 4,3 2,0 3,2 11 6 14 8 SW 20 0,0
10.12.2019 04:00:00 3,7 1,4 2,6 11 6 14 8 W 19 0,0
10.12.2019 03:00:00 3,2 0,9 1,3 11 6 14 8 W 22 0,0
10.12.2019 02:00:00 5,1 1,3 4,5 11 6 29 16 NW 21 0,0
10.12.2019 01:00:00 5,2 2,1 4,5 11 6 22 12 WNW 15 0,0
10.12.2019 00:00:00 5,5 -0,3 4,6 14 8 25 14 NW 28 0,0
09.12.2019 23:00:00 4,9 0,2 4,0 18 10 50 27 NW 25 0,0
09.12.2019 22:00:00 5,6 0,3 4,5 18 10 25 14 NW 20 0,0
09.12.2019 21:00:00 5,0 1,3 3,8 22 12 47 25 NNW 17 0,0
09.12.2019 20:00:00 5,4 1,3 4,3 25 14 43 23 NNW 15 0,0
09.12.2019 19:00:00 5,4 1,6 4,2 18 10 50 27 NNW 16 0,0
09.12.2019 18:00:00 6,5 2,2 5,4 32 18 47 25 NNW 14 0,0
09.12.2019 17:00:00 6,6 1,8 5,5 29 16 50 27 NNW 14 0,0
09.12.2019 16:00:00 7,6 3,1 6,7 40 21 58 31 NNW 15 0,1
09.12.2019 15:00:00 7,3 4,5 6,6 29 16 65 35 NNW 18 0,2
09.12.2019 14:00:00 8,0 6,0 7,5 22 12 54 29 NNW 38 -
09.12.2019 13:00:00 8,5 5,5 8,4 22 12 32 18 NNW 13 -
09.12.2019 12:00:00 8,4 5,8 8,2 14 8 22 12 WNW 15 -
09.12.2019 11:00:00 6,4 5,3 5,9 7 4 18 10 W 35 -
09.12.2019 10:00:00 5,9 5,2 5,4 11 6 18 10 W 19 -
09.12.2019 09:00:00 5,3 4,5 4,5 14 8 22 12 SW 18 -
09.12.2019 08:00:00 5,2 4,1 4,5 14 8 22 12 SSW 18 -
09.12.2019 07:00:00 5,5 4,1 4,9 18 10 36 19 SSW 50 -
09.12.2019 06:00:00 6,1 4,4 5,6 29 16 43 23 SSW 17 -
09.12.2019 05:00:00 6,3 4,8 5,7 25 14 43 23 SSW 23 -
09.12.2019 04:00:00 6,6 4,6 5,9 25 14 40 21 SSW 12 -
09.12.2019 03:00:00 7,5 3,5 6,4 25 14 43 23 SW 19 -
09.12.2019 02:00:00 7,8 3,4 6,7 29 16 47 25 WSW 21 -
09.12.2019 01:00:00 8,0 3,9 7,1 36 19 54 29 SW 16 -
09.12.2019 00:00:00 7,8 3,6 6,6 32 18 61 33 WSW 20 -
08.12.2019 23:00:00 7,9 4,0 6,8 32 18 50 27 WSW 17 -
08.12.2019 22:00:00 8,1 3,9 7,2 40 21 61 33 WSW 20 -
08.12.2019 21:00:00 8,3 4,5 7,4 32 18 50 27 WSW 17 -
08.12.2019 20:00:00 9,1 3,9 8,2 32 18 50 27 WSW 17 -
08.12.2019 19:00:00 9,4 4,2 8,5 36 19 54 29 WSW 19 -
08.12.2019 18:00:00 9,3 4,3 8,1 32 18 54 29 WSW 16 -
08.12.2019 17:00:00 9,4 5,0 8,3 36 19 65 35 WSW 13 -
08.12.2019 16:00:00 9,6 5,4 9,0 32 18 54 29 WSW 13 -
08.12.2019 15:00:00 9,9 5,9 9,2 40 21 58 31 WSW 13 -
08.12.2019 14:00:00 10,1 6,9 9,7 40 21 58 31 WSW 17 -
08.12.2019 13:00:00 8,9 6,3 8,5 36 19 61 33 WSW 9 -
08.12.2019 12:00:00 10,6 6,9 10,0 36 19 61 33 W 17 -
08.12.2019 11:00:00 10,8 8,8 10,1 40 21 68 37 WSW 15 -
08.12.2019 10:00:00 9,9 8,7 9,4 47 25 76 41 SW 15 -
08.12.2019 09:00:00 9,5 8,5 9,2 43 23 65 35 SW 3,1 -
08.12.2019 08:00:00 8,9 7,9 8,6 43 23 61 33 SW 4,2 -
08.12.2019 07:00:00 8,6 7,1 8,0 43 23 61 33 SSW 10 -
08.12.2019 06:00:00 9,1 6,5 8,3 47 25 72 39 SW 10 -
08.12.2019 05:00:00 9,2 5,8 8,8 40 21 65 35 SSW 48 -
08.12.2019 04:00:00 9,8 6,0 9,4 47 25 72 39 SW 49 -
08.12.2019 03:00:00 9,9 6,4 9,3 40 21 61 33 SW 46 -
08.12.2019 02:00:00 9,5 6,6 9,2 36 19 54 29 SSW 39 -
08.12.2019 01:00:00 9,3 7,1 8,9 32 18 47 25 SSW 20 -
08.12.2019 00:00:00 9,1 6,4 8,3 29 16 43 23 SW 24 -
07.12.2019 23:00:00 8,5 5,4 8,1 25 14 36 19 SSW 33 -
07.12.2019 22:00:00 8,7 5,5 7,8 25 14 40 21 SW 29 -
07.12.2019 21:00:00 9,0 6,1 8,3 18 10 32 18 SW 24 -
07.12.2019 20:00:00 9,1 5,2 8,3 22 12 32 18 WSW 37 -
07.12.2019 19:00:00 9,4 6,0 8,8 22 12 29 16 WSW 28 -
07.12.2019 18:00:00 9,2 7,1 8,7 18 10 29 16 SW 22 -
07.12.2019 17:00:00 9,3 7,4 8,8 18 10 32 18 WSW 21 -
07.12.2019 16:00:00 9,5 7,5 9,0 22 12 36 19 WSW 20 -
07.12.2019 15:00:00 9,4 7,7 9,0 22 12 32 18 W 17 -
07.12.2019 14:00:00 9,9 7,5 9,7 29 16 40 21 W 23 -
07.12.2019 13:00:00 9,9 7,6 9,7 25 14 36 19 W 20 -
07.12.2019 12:00:00 9,8 7,4 9,6 22 12 32 18 W 24 -
07.12.2019 11:00:00 9,6 7,5 9,4 22 12 29 16 W 20 -
07.12.2019 10:00:00 9,4 7,3 9,0 22 12 32 18 W 21 -
07.12.2019 09:00:00 9,3 7,1 8,7 25 14 40 21 W 22 -
07.12.2019 08:00:00 9,2 7,2 8,8 25 14 36 19 W 20 -
07.12.2019 07:00:00 9,1 7,2 8,8 25 14 40 21 W 20 -
07.12.2019 06:00:00 9,4 7,2 9,0 29 16 47 25 W 20 -
07.12.2019 05:00:00 9,4 7,4 9,1 29 16 47 25 W 19 -
07.12.2019 04:00:00 9,7 7,4 9,2 32 18 47 25 W 18 -
07.12.2019 03:00:00 9,5 7,6 9,1 29 16 43 23 W 14 -
07.12.2019 02:00:00 9,6 7,6 9,1 29 16 40 21 W 17 -
07.12.2019 01:00:00 9,6 7,9 9,0 29 16 50 27 W 15 -
07.12.2019 00:00:00 9,5 8,2 9,1 36 19 54 29 WNW 8 -
06.12.2019 23:00:00 9,6 8,6 9,1 32 18 43 23 WNW 7 -
06.12.2019 22:00:00 9,3 8,4 8,8 22 12 47 25 SW 14 -
06.12.2019 21:00:00 10,2 9,0 9,6 32 18 50 27 SW 19 -
06.12.2019 20:00:00 9,3 8,6 8,9 25 14 50 27 SSW 7 0,4
06.12.2019 19:00:00 9,2 8,2 8,9 29 16 50 27 SSW 20 0,0
06.12.2019 18:00:00 8,9 8,3 8,7 32 18 54 29 SSW 3,8 0,5
06.12.2019 17:00:00 9,5 8,5 9,1 40 21 61 33 SW 7 0,0
06.12.2019 16:00:00 9,1 8,2 8,8 36 19 58 31 SW 4,3 0,2
06.12.2019 15:00:00 9,1 8,0 8,6 40 21 61 33 SW 6 0,1
06.12.2019 14:00:00 7,8 6,9 7,3 29 16 47 25 SSW 11 0,0
06.12.2019 13:00:00 7,1 6,3 6,8 32 18 50 27 SSW 9 0,8
06.12.2019 12:00:00 6,9 6,3 6,7 32 18 47 25 SSW 5 1,8
06.12.2019 11:00:00 6,7 6,0 6,6 32 18 50 27 SSW 5 0,0
06.12.2019 10:00:00 6,4 5,8 6,2 32 18 50 27 SSW 3,1 0,1
06.12.2019 09:00:00 6,0 5,5 5,9 32 18 47 25 SSW 2,9 0,2
06.12.2019 08:00:00 6,1 5,4 5,9 29 16 43 23 SSW 3,8 0,1
06.12.2019 07:00:00 6,4 5,7 6,2 29 16 50 27 SSW 2,4 0,1
06.12.2019 06:00:00 6,5 5,6 6,3 32 18 50 27 SW 5 0,0
06.12.2019 05:00:00 6,9 5,9 6,6 32 18 54 29 SW 5 0,2
06.12.2019 04:00:00 7,1 6,0 6,8 36 19 58 31 SW 6 0,1
06.12.2019 03:00:00 7,2 5,9 7,0 32 18 54 29 SW 7 0,0
06.12.2019 02:00:00 7,1 5,7 6,8 32 18 50 27 SW 7 0,0
06.12.2019 01:00:00 6,5 5,4 6,1 32 18 47 25 SW 6 0,0
06.12.2019 00:00:00 6,2 5,3 5,8 32 18 50 27 SW 5 0,0
05.12.2019 23:00:00 5,3 4,6 5,0 32 18 47 25 SSW 3,5 0,1
05.12.2019 22:00:00 4,8 4,2 4,6 32 18 47 25 SSW 3,2 0,0
05.12.2019 21:00:00 4,8 4,0 4,6 32 18 47 25 SSW 3,5 0,0
05.12.2019 20:00:00 4,7 4,1 4,6 29 16 43 23 SSW 3,4 0,0
05.12.2019 19:00:00 5,6 4,7 5,4 29 16 40 21 SSW 3,8 0,0
05.12.2019 18:00:00 5,8 4,8 5,5 25 14 36 19 SSW 6 0,0
05.12.2019 17:00:00 5,2 4,4 5,0 22 12 29 16 SSW 4,5 0,0
05.12.2019 16:00:00 5,1 4,3 4,7 18 10 25 14 SSW 3,2 0,0
05.12.2019 15:00:00 4,1 3,6 4,2 22 12 29 16 S 2,0 0,0
05.12.2019 14:00:00 4,2 3,5 4,4 18 10 29 16 SSW 2,5 0,0
05.12.2019 13:00:00 4,7 3,6 4,9 18 10 29 16 SSW 6 0,0
05.12.2019 12:00:00 3,8 3,1 4,2 22 12 36 19 SW 4,0 0,0
05.12.2019 11:00:00 2,2 2,2 1,7 18 10 25 14 SSW 3,5 0,0
05.12.2019 10:00:00 0,2 0,1 0,1 14 8 22 12 S 0,1 0,0

tt = Température de l'air
td = dewpoint
tt 5cm = Température de l'air 5cm
ff = Vitesse du vent
fx = gusts
dd = Direction du vent
vv = visibility
rr = Quantités de précipitations

stations d'obs. à proximité